sensor_id;sensor_type;location;lat;lon;timestamp;P1;durP1;ratioP1;P2;durP2;ratioP2
14358;SDS011;7263;49.418;11.064;2023-02-15T00:01:24;25.53;;;15.27;;
14358;SDS011;7263;49.418;11.064;2023-02-15T00:03:51;21.63;;;15.77;;
14358;SDS011;7263;49.418;11.064;2023-02-15T00:06:17;25.37;;;15.73;;
14358;SDS011;7263;49.418;11.064;2023-02-15T00:08:44;32.20;;;15.87;;
14358;SDS011;7263;49.418;11.064;2023-02-15T00:11:12;25.13;;;15.30;;
14358;SDS011;7263;49.418;11.064;2023-02-15T00:13:41;22.70;;;15.03;;
14358;SDS011;7263;49.418;11.064;2023-02-15T00:16:09;19.67;;;15.70;;
14358;SDS011;7263;49.418;11.064;2023-02-15T00:18:37;24.97;;;18.70;;
14358;SDS011;7263;49.418;11.064;2023-02-15T00:21:05;47.90;;;36.87;;
14358;SDS011;7263;49.418;11.064;2023-02-15T00:23:34;21.80;;;16.43;;
14358;SDS011;7263;49.418;11.064;2023-02-15T00:26:05;25.27;;;15.93;;
14358;SDS011;7263;49.418;11.064;2023-02-15T00:28:32;27.53;;;16.07;;
14358;SDS011;7263;49.418;11.064;2023-02-15T00:31:04;21.83;;;15.27;;
14358;SDS011;7263;49.418;11.064;2023-02-15T00:33:31;23.33;;;15.47;;
14358;SDS011;7263;49.418;11.064;2023-02-15T00:35:59;22.00;;;16.07;;
14358;SDS011;7263;49.418;11.064;2023-02-15T00:38:26;23.37;;;16.07;;
14358;SDS011;7263;49.418;11.064;2023-02-15T00:40:54;20.97;;;15.90;;
14358;SDS011;7263;49.418;11.064;2023-02-15T00:43:20;22.20;;;15.63;;
14358;SDS011;7263;49.418;11.064;2023-02-15T00:45:48;22.40;;;15.57;;
14358;SDS011;7263;49.418;11.064;2023-02-15T00:48:16;19.83;;;14.97;;
14358;SDS011;7263;49.418;11.064;2023-02-15T00:50:44;19.57;;;15.33;;
14358;SDS011;7263;49.418;11.064;2023-02-15T00:53:11;20.83;;;16.23;;
14358;SDS011;7263;49.418;11.064;2023-02-15T00:55:38;22.33;;;16.33;;
14358;SDS011;7263;49.418;11.064;2023-02-15T00:58:05;21.20;;;15.63;;
14358;SDS011;7263;49.418;11.064;2023-02-15T01:00:32;19.27;;;15.20;;
14358;SDS011;7263;49.418;11.064;2023-02-15T01:02:59;20.00;;;15.33;;
14358;SDS011;7263;49.418;11.064;2023-02-15T01:05:27;18.87;;;15.53;;
14358;SDS011;7263;49.418;11.064;2023-02-15T01:07:54;18.37;;;14.53;;
14358;SDS011;7263;49.418;11.064;2023-02-15T01:10:21;19.03;;;15.37;;
14358;SDS011;7263;49.418;11.064;2023-02-15T01:12:49;18.97;;;13.93;;
14358;SDS011;7263;49.418;11.064;2023-02-15T01:15:16;17.40;;;14.67;;
14358;SDS011;7263;49.418;11.064;2023-02-15T01:17:43;17.63;;;14.63;;
14358;SDS011;7263;49.418;11.064;2023-02-15T01:20:16;18.73;;;14.27;;
14358;SDS011;7263;49.418;11.064;2023-02-15T01:22:44;19.17;;;14.43;;
14358;SDS011;7263;49.418;11.064;2023-02-15T01:25:11;18.30;;;14.07;;
14358;SDS011;7263;49.418;11.064;2023-02-15T01:27:38;16.37;;;14.10;;
14358;SDS011;7263;49.418;11.064;2023-02-15T01:30:05;15.77;;;13.33;;
14358;SDS011;7263;49.418;11.064;2023-02-15T01:32:33;17.13;;;14.33;;
14358;SDS011;7263;49.418;11.064;2023-02-15T01:35:00;17.80;;;14.30;;
14358;SDS011;7263;49.418;11.064;2023-02-15T01:37:29;17.03;;;13.50;;
14358;SDS011;7263;49.418;11.064;2023-02-15T01:39:57;19.23;;;14.03;;
14358;SDS011;7263;49.418;11.064;2023-02-15T01:42:25;18.60;;;14.17;;
14358;SDS011;7263;49.418;11.064;2023-02-15T01:44:53;21.67;;;14.33;;
14358;SDS011;7263;49.418;11.064;2023-02-15T01:47:23;18.77;;;14.37;;
14358;SDS011;7263;49.418;11.064;2023-02-15T01:49:58;20.57;;;14.37;;
14358;SDS011;7263;49.418;11.064;2023-02-15T01:52:26;18.63;;;14.97;;
14358;SDS011;7263;49.418;11.064;2023-02-15T01:54:54;17.97;;;14.97;;
14358;SDS011;7263;49.418;11.064;2023-02-15T01:57:23;19.43;;;15.20;;
14358;SDS011;7263;49.418;11.064;2023-02-15T01:59:53;21.57;;;15.70;;
14358;SDS011;7263;49.418;11.064;2023-02-15T02:02:25;20.73;;;15.63;;
14358;SDS011;7263;49.418;11.064;2023-02-15T02:04:54;18.77;;;14.73;;
14358;SDS011;7263;49.418;11.064;2023-02-15T02:07:28;18.60;;;14.83;;
14358;SDS011;7263;49.418;11.064;2023-02-15T02:09:58;19.27;;;14.30;;
14358;SDS011;7263;49.418;11.064;2023-02-15T02:12:28;18.43;;;14.77;;
14358;SDS011;7263;49.418;11.064;2023-02-15T02:14:55;18.10;;;14.23;;
14358;SDS011;7263;49.418;11.064;2023-02-15T02:17:26;19.47;;;14.63;;
14358;SDS011;7263;49.418;11.064;2023-02-15T02:20:16;19.63;;;14.27;;
14358;SDS011;7263;49.418;11.064;2023-02-15T02:23:10;16.47;;;13.80;;
14358;SDS011;7263;49.418;11.064;2023-02-15T02:31:52;18.20;;;13.60;;
14358;SDS011;7263;49.418;11.064;2023-02-15T02:34:51;18.30;;;13.80;;
14358;SDS011;7263;49.418;11.064;2023-02-15T02:37:28;16.73;;;13.77;;
14358;SDS011;7263;49.418;11.064;2023-02-15T02:40:03;17.50;;;13.60;;
14358;SDS011;7263;49.418;11.064;2023-02-15T02:42:39;17.53;;;13.33;;
14358;SDS011;7263;49.418;11.064;2023-02-15T02:45:08;18.63;;;13.97;;
14358;SDS011;7263;49.418;11.064;2023-02-15T02:47:42;17.73;;;12.93;;
14358;SDS011;7263;49.418;11.064;2023-02-15T02:50:14;15.17;;;12.77;;
14358;SDS011;7263;49.418;11.064;2023-02-15T02:52:43;15.93;;;12.73;;
14358;SDS011;7263;49.418;11.064;2023-02-15T02:55:12;14.37;;;12.20;;
14358;SDS011;7263;49.418;11.064;2023-02-15T02:57:44;15.10;;;12.07;;
14358;SDS011;7263;49.418;11.064;2023-02-15T03:00:18;16.10;;;11.50;;
14358;SDS011;7263;49.418;11.064;2023-02-15T03:02:47;14.83;;;12.30;;
14358;SDS011;7263;49.418;11.064;2023-02-15T03:05:21;13.60;;;11.10;;
14358;SDS011;7263;49.418;11.064;2023-02-15T03:07:51;14.93;;;11.20;;
14358;SDS011;7263;49.418;11.064;2023-02-15T03:10:21;14.97;;;11.00;;
14358;SDS011;7263;49.418;11.064;2023-02-15T03:12:49;13.47;;;11.10;;
14358;SDS011;7263;49.418;11.064;2023-02-15T03:15:18;14.17;;;10.80;;
14358;SDS011;7263;49.418;11.064;2023-02-15T03:17:48;14.60;;;11.43;;
14358;SDS011;7263;49.418;11.064;2023-02-15T03:20:22;18.47;;;12.00;;
14358;SDS011;7263;49.418;11.064;2023-02-15T03:22:53;14.63;;;11.97;;
14358;SDS011;7263;49.418;11.064;2023-02-15T03:25:23;14.00;;;11.33;;
14358;SDS011;7263;49.418;11.064;2023-02-15T03:27:54;15.33;;;11.70;;
14358;SDS011;7263;49.418;11.064;2023-02-15T03:30:27;15.17;;;10.97;;
14358;SDS011;7263;49.418;11.064;2023-02-15T03:32:55;12.50;;;10.43;;
14358;SDS011;7263;49.418;11.064;2023-02-15T03:35:26;12.83;;;11.27;;
14358;SDS011;7263;49.418;11.064;2023-02-15T03:38:00;14.47;;;10.67;;
14358;SDS011;7263;49.418;11.064;2023-02-15T03:40:30;14.50;;;11.00;;
14358;SDS011;7263;49.418;11.064;2023-02-15T03:43:19;12.47;;;10.10;;
14358;SDS011;7263;49.418;11.064;2023-02-15T03:45:52;14.73;;;10.73;;
14358;SDS011;7263;49.418;11.064;2023-02-15T03:48:25;12.57;;;10.77;;
14358;SDS011;7263;49.418;11.064;2023-02-15T03:50:58;12.33;;;10.60;;
14358;SDS011;7263;49.418;11.064;2023-02-15T03:53:46;11.20;;;10.10;;
14358;SDS011;7263;49.418;11.064;2023-02-15T03:56:15;11.27;;;9.30;;
14358;SDS011;7263;49.418;11.064;2023-02-15T03:58:42;11.33;;;9.33;;
14358;SDS011;7263;49.418;11.064;2023-02-15T04:01:27;14.20;;;9.27;;
14358;SDS011;7263;49.418;11.064;2023-02-15T04:04:23;10.20;;;8.40;;
14358;SDS011;7263;49.418;11.064;2023-02-15T04:06:55;10.83;;;8.77;;
14358;SDS011;7263;49.418;11.064;2023-02-15T04:09:22;11.07;;;9.10;;
14358;SDS011;7263;49.418;11.064;2023-02-15T04:12:07;9.97;;;8.87;;
14358;SDS011;7263;49.418;11.064;2023-02-15T04:14:34;11.23;;;9.70;;
14358;SDS011;7263;49.418;11.064;2023-02-15T04:17:18;12.83;;;10.33;;
14358;SDS011;7263;49.418;11.064;2023-02-15T04:19:45;13.00;;;10.23;;
14358;SDS011;7263;49.418;11.064;2023-02-15T04:22:30;13.10;;;10.30;;
14358;SDS011;7263;49.418;11.064;2023-02-15T04:25:15;13.47;;;10.93;;
14358;SDS011;7263;49.418;11.064;2023-02-15T04:27:42;13.00;;;10.93;;
14358;SDS011;7263;49.418;11.064;2023-02-15T04:30:11;13.87;;;11.33;;
14358;SDS011;7263;49.418;11.064;2023-02-15T04:32:39;14.53;;;11.47;;
14358;SDS011;7263;49.418;11.064;2023-02-15T04:35:06;14.77;;;12.43;;
14358;SDS011;7263;49.418;11.064;2023-02-15T04:37:34;14.10;;;11.60;;
14358;SDS011;7263;49.418;11.064;2023-02-15T04:40:01;15.70;;;12.10;;
14358;SDS011;7263;49.418;11.064;2023-02-15T04:42:28;14.53;;;12.50;;
14358;SDS011;7263;49.418;11.064;2023-02-15T04:44:55;15.17;;;12.90;;
14358;SDS011;7263;49.418;11.064;2023-02-15T04:47:22;15.50;;;12.10;;
14358;SDS011;7263;49.418;11.064;2023-02-15T04:49:49;16.33;;;12.67;;
14358;SDS011;7263;49.418;11.064;2023-02-15T04:52:16;16.57;;;12.77;;
14358;SDS011;7263;49.418;11.064;2023-02-15T04:54:44;16.10;;;13.37;;
14358;SDS011;7263;49.418;11.064;2023-02-15T04:57:12;15.63;;;13.63;;
14358;SDS011;7263;49.418;11.064;2023-02-15T04:59:39;19.20;;;13.90;;
14358;SDS011;7263;49.418;11.064;2023-02-15T05:02:05;15.43;;;13.17;;
14358;SDS011;7263;49.418;11.064;2023-02-15T05:04:32;16.07;;;13.23;;
14358;SDS011;7263;49.418;11.064;2023-02-15T05:06:59;16.60;;;13.50;;
14358;SDS011;7263;49.418;11.064;2023-02-15T05:09:26;18.93;;;13.23;;
14358;SDS011;7263;49.418;11.064;2023-02-15T05:11:54;22.03;;;14.23;;
14358;SDS011;7263;49.418;11.064;2023-02-15T05:14:21;14.80;;;12.73;;
14358;SDS011;7263;49.418;11.064;2023-02-15T05:16:47;18.27;;;12.67;;
14358;SDS011;7263;49.418;11.064;2023-02-15T05:19:14;16.37;;;13.33;;
14358;SDS011;7263;49.418;11.064;2023-02-15T05:21:41;17.37;;;12.80;;
14358;SDS011;7263;49.418;11.064;2023-02-15T05:24:08;16.33;;;12.67;;
14358;SDS011;7263;49.418;11.064;2023-02-15T05:26:49;16.20;;;13.60;;
14358;SDS011;7263;49.418;11.064;2023-02-15T05:29:34;16.43;;;13.67;;
14358;SDS011;7263;49.418;11.064;2023-02-15T05:32:01;16.83;;;14.10;;
14358;SDS011;7263;49.418;11.064;2023-02-15T05:34:29;17.13;;;13.90;;
14358;SDS011;7263;49.418;11.064;2023-02-15T05:36:55;17.03;;;14.33;;
14358;SDS011;7263;49.418;11.064;2023-02-15T05:39:22;15.90;;;13.60;;
14358;SDS011;7263;49.418;11.064;2023-02-15T05:41:49;19.93;;;14.97;;
14358;SDS011;7263;49.418;11.064;2023-02-15T05:44:16;21.03;;;14.17;;
14358;SDS011;7263;49.418;11.064;2023-02-15T05:46:44;18.70;;;15.00;;
14358;SDS011;7263;49.418;11.064;2023-02-15T05:49:11;17.13;;;13.97;;
14358;SDS011;7263;49.418;11.064;2023-02-15T05:51:37;16.63;;;13.23;;
14358;SDS011;7263;49.418;11.064;2023-02-15T05:54:04;20.70;;;15.00;;
14358;SDS011;7263;49.418;11.064;2023-02-15T05:56:31;19.20;;;14.60;;
14358;SDS011;7263;49.418;11.064;2023-02-15T05:58:58;20.13;;;15.87;;
14358;SDS011;7263;49.418;11.064;2023-02-15T06:01:24;18.50;;;14.63;;
14358;SDS011;7263;49.418;11.064;2023-02-15T06:03:52;17.90;;;13.93;;
14358;SDS011;7263;49.418;11.064;2023-02-15T06:06:20;20.07;;;15.47;;
14358;SDS011;7263;49.418;11.064;2023-02-15T06:08:47;19.10;;;14.40;;
14358;SDS011;7263;49.418;11.064;2023-02-15T06:11:14;18.87;;;14.33;;
14358;SDS011;7263;49.418;11.064;2023-02-15T06:13:41;26.37;;;21.53;;
14358;SDS011;7263;49.418;11.064;2023-02-15T06:16:07;60.33;;;43.57;;
14358;SDS011;7263;49.418;11.064;2023-02-15T06:18:34;27.80;;;21.73;;
14358;SDS011;7263;49.418;11.064;2023-02-15T06:21:02;57.80;;;45.67;;
14358;SDS011;7263;49.418;11.064;2023-02-15T06:23:29;25.57;;;21.27;;
14358;SDS011;7263;49.418;11.064;2023-02-15T06:25:56;23.83;;;19.87;;
14358;SDS011;7263;49.418;11.064;2023-02-15T06:28:22;20.80;;;17.03;;
14358;SDS011;7263;49.418;11.064;2023-02-15T06:30:50;21.30;;;17.20;;
14358;SDS011;7263;49.418;11.064;2023-02-15T06:33:18;18.23;;;14.63;;
14358;SDS011;7263;49.418;11.064;2023-02-15T06:35:44;18.03;;;15.77;;
14358;SDS011;7263;49.418;11.064;2023-02-15T06:38:12;20.57;;;16.17;;
14358;SDS011;7263;49.418;11.064;2023-02-15T06:40:39;20.53;;;16.70;;
14358;SDS011;7263;49.418;11.064;2023-02-15T06:43:06;24.17;;;19.57;;
14358;SDS011;7263;49.418;11.064;2023-02-15T06:45:33;16.43;;;13.90;;
14358;SDS011;7263;49.418;11.064;2023-02-15T06:48:00;18.67;;;16.27;;
14358;SDS011;7263;49.418;11.064;2023-02-15T06:50:27;17.33;;;13.90;;
14358;SDS011;7263;49.418;11.064;2023-02-15T06:52:55;18.70;;;14.10;;
14358;SDS011;7263;49.418;11.064;2023-02-15T06:55:24;16.40;;;13.50;;
14358;SDS011;7263;49.418;11.064;2023-02-15T06:57:51;16.73;;;13.93;;
14358;SDS011;7263;49.418;11.064;2023-02-15T07:00:18;18.17;;;15.90;;
14358;SDS011;7263;49.418;11.064;2023-02-15T07:02:47;15.43;;;13.30;;
14358;SDS011;7263;49.418;11.064;2023-02-15T07:05:13;16.07;;;13.73;;
14358;SDS011;7263;49.418;11.064;2023-02-15T07:07:40;19.13;;;15.07;;
14358;SDS011;7263;49.418;11.064;2023-02-15T07:10:07;16.23;;;13.77;;
14358;SDS011;7263;49.418;11.064;2023-02-15T07:12:36;16.07;;;13.33;;
14358;SDS011;7263;49.418;11.064;2023-02-15T07:15:08;18.80;;;14.63;;
14358;SDS011;7263;49.418;11.064;2023-02-15T07:17:35;17.40;;;14.13;;
14358;SDS011;7263;49.418;11.064;2023-02-15T07:20:02;16.57;;;13.30;;
14358;SDS011;7263;49.418;11.064;2023-02-15T07:22:30;15.97;;;13.47;;
14358;SDS011;7263;49.418;11.064;2023-02-15T07:24:58;15.90;;;13.00;;
14358;SDS011;7263;49.418;11.064;2023-02-15T07:27:25;17.73;;;13.20;;
14358;SDS011;7263;49.418;11.064;2023-02-15T07:29:53;15.63;;;12.53;;
14358;SDS011;7263;49.418;11.064;2023-02-15T07:32:20;15.63;;;12.77;;
14358;SDS011;7263;49.418;11.064;2023-02-15T07:34:47;15.60;;;12.40;;
14358;SDS011;7263;49.418;11.064;2023-02-15T07:37:14;15.73;;;12.70;;
14358;SDS011;7263;49.418;11.064;2023-02-15T07:39:40;14.07;;;12.13;;
14358;SDS011;7263;49.418;11.064;2023-02-15T07:42:07;15.03;;;12.10;;
14358;SDS011;7263;49.418;11.064;2023-02-15T07:44:34;14.53;;;12.60;;
14358;SDS011;7263;49.418;11.064;2023-02-15T07:47:02;15.00;;;12.60;;
14358;SDS011;7263;49.418;11.064;2023-02-15T07:49:29;16.40;;;12.87;;
14358;SDS011;7263;49.418;11.064;2023-02-15T07:51:55;15.33;;;13.30;;
14358;SDS011;7263;49.418;11.064;2023-02-15T07:54:22;16.43;;;12.97;;
14358;SDS011;7263;49.418;11.064;2023-02-15T08:00:11;14.17;;;12.33;;
14358;SDS011;7263;49.418;11.064;2023-02-15T08:02:41;15.77;;;12.70;;
14358;SDS011;7263;49.418;11.064;2023-02-15T08:05:08;15.93;;;13.00;;
14358;SDS011;7263;49.418;11.064;2023-02-15T08:07:34;16.30;;;12.07;;
14358;SDS011;7263;49.418;11.064;2023-02-15T08:10:01;14.97;;;12.57;;
14358;SDS011;7263;49.418;11.064;2023-02-15T08:12:28;15.37;;;12.20;;
14358;SDS011;7263;49.418;11.064;2023-02-15T08:14:55;14.80;;;12.30;;
14358;SDS011;7263;49.418;11.064;2023-02-15T08:17:22;16.13;;;12.97;;
14358;SDS011;7263;49.418;11.064;2023-02-15T08:19:50;15.63;;;12.37;;
14358;SDS011;7263;49.418;11.064;2023-02-15T08:22:16;14.13;;;12.27;;
14358;SDS011;7263;49.418;11.064;2023-02-15T08:24:43;13.10;;;11.47;;
14358;SDS011;7263;49.418;11.064;2023-02-15T08:27:10;14.97;;;11.93;;
14358;SDS011;7263;49.418;11.064;2023-02-15T08:29:37;13.67;;;11.23;;
14358;SDS011;7263;49.418;11.064;2023-02-15T08:32:07;14.47;;;11.50;;
14358;SDS011;7263;49.418;11.064;2023-02-15T08:34:36;14.60;;;11.77;;
14358;SDS011;7263;49.418;11.064;2023-02-15T08:37:06;14.63;;;11.77;;
14358;SDS011;7263;49.418;11.064;2023-02-15T08:39:33;14.03;;;10.73;;
14358;SDS011;7263;49.418;11.064;2023-02-15T08:41:59;14.13;;;11.83;;
14358;SDS011;7263;49.418;11.064;2023-02-15T08:44:26;16.97;;;13.13;;
14358;SDS011;7263;49.418;11.064;2023-02-15T08:46:54;14.50;;;12.13;;
14358;SDS011;7263;49.418;11.064;2023-02-15T08:49:22;14.50;;;11.83;;
14358;SDS011;7263;49.418;11.064;2023-02-15T08:51:49;15.43;;;11.87;;
14358;SDS011;7263;49.418;11.064;2023-02-15T08:54:18;14.60;;;12.70;;
14358;SDS011;7263;49.418;11.064;2023-02-15T08:56:45;14.17;;;12.23;;
14358;SDS011;7263;49.418;11.064;2023-02-15T08:59:13;15.80;;;12.80;;
14358;SDS011;7263;49.418;11.064;2023-02-15T09:01:42;13.83;;;11.60;;
14358;SDS011;7263;49.418;11.064;2023-02-15T09:04:09;14.73;;;12.13;;
14358;SDS011;7263;49.418;11.064;2023-02-15T09:06:38;14.40;;;12.27;;
14358;SDS011;7263;49.418;11.064;2023-02-15T09:09:06;13.67;;;11.40;;
14358;SDS011;7263;49.418;11.064;2023-02-15T09:11:36;14.93;;;12.07;;
14358;SDS011;7263;49.418;11.064;2023-02-15T09:14:04;15.03;;;12.17;;
14358;SDS011;7263;49.418;11.064;2023-02-15T09:16:33;15.10;;;12.07;;
14358;SDS011;7263;49.418;11.064;2023-02-15T09:19:01;13.80;;;11.07;;
14358;SDS011;7263;49.418;11.064;2023-02-15T09:21:29;17.67;;;12.03;;
14358;SDS011;7263;49.418;11.064;2023-02-15T09:23:57;15.77;;;12.63;;
14358;SDS011;7263;49.418;11.064;2023-02-15T09:26:26;13.40;;;11.60;;
14358;SDS011;7263;49.418;11.064;2023-02-15T09:28:56;16.33;;;11.90;;
14358;SDS011;7263;49.418;11.064;2023-02-15T09:31:25;14.53;;;12.17;;
14358;SDS011;7263;49.418;11.064;2023-02-15T09:33:53;17.53;;;14.60;;
14358;SDS011;7263;49.418;11.064;2023-02-15T09:36:22;14.10;;;11.57;;
14358;SDS011;7263;49.418;11.064;2023-02-15T09:38:52;13.60;;;11.13;;
14358;SDS011;7263;49.418;11.064;2023-02-15T09:41:27;14.40;;;12.93;;
14358;SDS011;7263;49.418;11.064;2023-02-15T09:44:12;11.27;;;9.07;;
14358;SDS011;7263;49.418;11.064;2023-02-15T09:46:57;11.87;;;10.27;;
14358;SDS011;7263;49.418;11.064;2023-02-15T09:49:38;14.90;;;13.30;;
14358;SDS011;7263;49.418;11.064;2023-02-15T09:52:17;12.00;;;9.17;;
14358;SDS011;7263;49.418;11.064;2023-02-15T09:55:03;10.17;;;8.77;;
14358;SDS011;7263;49.418;11.064;2023-02-15T09:57:41;11.50;;;10.30;;
14358;SDS011;7263;49.418;11.064;2023-02-15T10:00:20;15.17;;;13.63;;
14358;SDS011;7263;49.418;11.064;2023-02-15T10:03:00;14.73;;;10.73;;
14358;SDS011;7263;49.418;11.064;2023-02-15T10:05:38;19.73;;;17.73;;
14358;SDS011;7263;49.418;11.064;2023-02-15T10:08:20;16.73;;;14.73;;
14358;SDS011;7263;49.418;11.064;2023-02-15T10:11:06;12.40;;;11.10;;
14358;SDS011;7263;49.418;11.064;2023-02-15T10:14:01;14.63;;;11.87;;
14358;SDS011;7263;49.418;11.064;2023-02-15T10:16:43;13.17;;;11.77;;
14358;SDS011;7263;49.418;11.064;2023-02-15T10:19:19;11.33;;;9.70;;
14358;SDS011;7263;49.418;11.064;2023-02-15T10:21:55;12.47;;;11.17;;
14358;SDS011;7263;49.418;11.064;2023-02-15T10:24:36;13.93;;;11.87;;
14358;SDS011;7263;49.418;11.064;2023-02-15T10:27:18;14.57;;;13.00;;
14358;SDS011;7263;49.418;11.064;2023-02-15T10:29:48;13.23;;;11.53;;
14358;SDS011;7263;49.418;11.064;2023-02-15T10:32:26;13.80;;;12.40;;
14358;SDS011;7263;49.418;11.064;2023-02-15T10:34:56;13.50;;;11.87;;
14358;SDS011;7263;49.418;11.064;2023-02-15T10:37:31;11.50;;;10.17;;
14358;SDS011;7263;49.418;11.064;2023-02-15T10:40:15;11.83;;;10.63;;
14358;SDS011;7263;49.418;11.064;2023-02-15T10:42:54;11.53;;;10.10;;
14358;SDS011;7263;49.418;11.064;2023-02-15T10:45:35;12.33;;;11.03;;
14358;SDS011;7263;49.418;11.064;2023-02-15T10:48:15;11.03;;;9.90;;
14358;SDS011;7263;49.418;11.064;2023-02-15T10:50:52;13.40;;;11.93;;
14358;SDS011;7263;49.418;11.064;2023-02-15T10:53:26;13.43;;;12.03;;
14358;SDS011;7263;49.418;11.064;2023-02-15T10:56:24;12.33;;;11.03;;
14358;SDS011;7263;49.418;11.064;2023-02-15T10:59:01;13.47;;;11.23;;
14358;SDS011;7263;49.418;11.064;2023-02-15T11:01:38;12.53;;;11.13;;
14358;SDS011;7263;49.418;11.064;2023-02-15T11:04:18;12.47;;;10.50;;
14358;SDS011;7263;49.418;11.064;2023-02-15T11:06:59;11.57;;;10.37;;
14358;SDS011;7263;49.418;11.064;2023-02-15T11:09:33;12.50;;;10.57;;
14358;SDS011;7263;49.418;11.064;2023-02-15T11:12:05;11.67;;;10.47;;
14358;SDS011;7263;49.418;11.064;2023-02-15T11:14:38;11.90;;;10.70;;
14358;SDS011;7263;49.418;11.064;2023-02-15T11:17:10;10.57;;;9.47;;
14358;SDS011;7263;49.418;11.064;2023-02-15T11:19:43;10.87;;;9.77;;
14358;SDS011;7263;49.418;11.064;2023-02-15T11:22:17;12.17;;;10.17;;
14358;SDS011;7263;49.418;11.064;2023-02-15T11:24:45;12.17;;;10.53;;
14358;SDS011;7263;49.418;11.064;2023-02-15T11:27:16;14.63;;;12.90;;
14358;SDS011;7263;49.418;11.064;2023-02-15T11:29:48;13.70;;;12.30;;
14358;SDS011;7263;49.418;11.064;2023-02-15T11:32:21;13.97;;;11.63;;
14358;SDS011;7263;49.418;11.064;2023-02-15T11:34:53;14.83;;;12.83;;
14358;SDS011;7263;49.418;11.064;2023-02-15T11:37:24;12.27;;;11.00;;
14358;SDS011;7263;49.418;11.064;2023-02-15T11:39:58;15.47;;;13.87;;
14358;SDS011;7263;49.418;11.064;2023-02-15T11:42:28;15.10;;;13.47;;
14358;SDS011;7263;49.418;11.064;2023-02-15T11:44:59;12.63;;;11.43;;
14358;SDS011;7263;49.418;11.064;2023-02-15T11:47:30;15.87;;;13.57;;
14358;SDS011;7263;49.418;11.064;2023-02-15T11:49:59;12.43;;;11.13;;
14358;SDS011;7263;49.418;11.064;2023-02-15T11:52:26;13.60;;;11.93;;
14358;SDS011;7263;49.418;11.064;2023-02-15T11:54:53;12.57;;;11.27;;
14358;SDS011;7263;49.418;11.064;2023-02-15T11:57:22;13.83;;;12.00;;
14358;SDS011;7263;49.418;11.064;2023-02-15T11:59:53;13.77;;;10.77;;
14358;SDS011;7263;49.418;11.064;2023-02-15T12:02:24;13.00;;;10.93;;
14358;SDS011;7263;49.418;11.064;2023-02-15T12:04:52;13.47;;;9.83;;
14358;SDS011;7263;49.418;11.064;2023-02-15T12:07:24;12.03;;;10.30;;
14358;SDS011;7263;49.418;11.064;2023-02-15T12:09:56;12.43;;;10.90;;
14358;SDS011;7263;49.418;11.064;2023-02-15T12:12:32;14.10;;;10.70;;
14358;SDS011;7263;49.418;11.064;2023-02-15T12:15:01;17.97;;;14.27;;
14358;SDS011;7263;49.418;11.064;2023-02-15T12:17:29;14.20;;;11.63;;
14358;SDS011;7263;49.418;11.064;2023-02-15T12:19:59;15.67;;;11.77;;
14358;SDS011;7263;49.418;11.064;2023-02-15T12:22:30;16.33;;;12.73;;
14358;SDS011;7263;49.418;11.064;2023-02-15T12:25:02;12.60;;;10.93;;
14358;SDS011;7263;49.418;11.064;2023-02-15T12:27:45;14.03;;;11.57;;
14358;SDS011;7263;49.418;11.064;2023-02-15T12:30:15;14.43;;;11.80;;
14358;SDS011;7263;49.418;11.064;2023-02-15T12:32:47;13.73;;;12.03;;
14358;SDS011;7263;49.418;11.064;2023-02-15T12:35:20;15.50;;;12.87;;
14358;SDS011;7263;49.418;11.064;2023-02-15T12:37:54;16.00;;;12.10;;
14358;SDS011;7263;49.418;11.064;2023-02-15T12:40:23;15.67;;;12.60;;
14358;SDS011;7263;49.418;11.064;2023-02-15T12:42:52;15.40;;;12.70;;
14358;SDS011;7263;49.418;11.064;2023-02-15T12:45:21;16.97;;;12.70;;
14358;SDS011;7263;49.418;11.064;2023-02-15T12:48:07;13.77;;;11.33;;
14358;SDS011;7263;49.418;11.064;2023-02-15T12:50:35;16.43;;;13.10;;
14358;SDS011;7263;49.418;11.064;2023-02-15T12:53:07;12.63;;;10.57;;
14358;SDS011;7263;49.418;11.064;2023-02-15T12:55:42;13.33;;;10.87;;
14358;SDS011;7263;49.418;11.064;2023-02-15T12:58:17;12.20;;;10.47;;
14358;SDS011;7263;49.418;11.064;2023-02-15T13:00:45;13.80;;;11.30;;
14358;SDS011;7263;49.418;11.064;2023-02-15T13:03:16;13.23;;;11.67;;
14358;SDS011;7263;49.418;11.064;2023-02-15T13:05:45;15.30;;;12.87;;
14358;SDS011;7263;49.418;11.064;2023-02-15T13:08:18;13.90;;;11.97;;
14358;SDS011;7263;49.418;11.064;2023-02-15T13:10:52;14.53;;;12.47;;
14358;SDS011;7263;49.418;11.064;2023-02-15T13:13:21;16.77;;;13.67;;
14358;SDS011;7263;49.418;11.064;2023-02-15T13:15:52;16.23;;;12.80;;
14358;SDS011;7263;49.418;11.064;2023-02-15T13:18:24;15.33;;;12.80;;
14358;SDS011;7263;49.418;11.064;2023-02-15T13:20:56;16.03;;;13.03;;
14358;SDS011;7263;49.418;11.064;2023-02-15T13:23:27;15.63;;;12.00;;
14358;SDS011;7263;49.418;11.064;2023-02-15T13:25:55;16.30;;;13.37;;
14358;SDS011;7263;49.418;11.064;2023-02-15T13:28:25;15.37;;;12.97;;
14358;SDS011;7263;49.418;11.064;2023-02-15T13:30:58;17.43;;;14.10;;
14358;SDS011;7263;49.418;11.064;2023-02-15T13:33:26;16.93;;;13.60;;
14358;SDS011;7263;49.418;11.064;2023-02-15T13:36:01;15.57;;;13.30;;
14358;SDS011;7263;49.418;11.064;2023-02-15T13:38:41;16.50;;;13.77;;
14358;SDS011;7263;49.418;11.064;2023-02-15T13:41:16;15.23;;;13.23;;
14358;SDS011;7263;49.418;11.064;2023-02-15T13:43:50;16.77;;;13.67;;
14358;SDS011;7263;49.418;11.064;2023-02-15T13:46:32;15.73;;;13.03;;
14358;SDS011;7263;49.418;11.064;2023-02-15T13:49:14;15.63;;;13.93;;
14358;SDS011;7263;49.418;11.064;2023-02-15T13:51:50;17.23;;;13.53;;
14358;SDS011;7263;49.418;11.064;2023-02-15T13:54:28;14.73;;;12.27;;
14358;SDS011;7263;49.418;11.064;2023-02-15T13:57:11;18.73;;;12.53;;
14358;SDS011;7263;49.418;11.064;2023-02-15T13:59:59;15.33;;;12.93;;
14358;SDS011;7263;49.418;11.064;2023-02-15T14:02:44;16.77;;;13.70;;
14358;SDS011;7263;49.418;11.064;2023-02-15T14:05:41;15.57;;;13.07;;
14358;SDS011;7263;49.418;11.064;2023-02-15T14:08:21;16.80;;;13.17;;
14358;SDS011;7263;49.418;11.064;2023-02-15T14:11:01;16.07;;;13.47;;
14358;SDS011;7263;49.418;11.064;2023-02-15T14:13:38;17.03;;;13.53;;
14358;SDS011;7263;49.418;11.064;2023-02-15T14:16:31;15.10;;;12.70;;
14358;SDS011;7263;49.418;11.064;2023-02-15T14:19:09;16.50;;;13.60;;
14358;SDS011;7263;49.418;11.064;2023-02-15T14:21:43;15.53;;;13.37;;
14358;SDS011;7263;49.418;11.064;2023-02-15T14:24:24;16.23;;;13.33;;
14358;SDS011;7263;49.418;11.064;2023-02-15T14:26:59;17.23;;;15.20;;
14358;SDS011;7263;49.418;11.064;2023-02-15T14:29:43;15.77;;;13.77;;
14358;SDS011;7263;49.418;11.064;2023-02-15T14:32:14;15.97;;;12.27;;
14358;SDS011;7263;49.418;11.064;2023-02-15T14:34:48;13.93;;;12.07;;
14358;SDS011;7263;49.418;11.064;2023-02-15T14:37:21;15.97;;;13.37;;
14358;SDS011;7263;49.418;11.064;2023-02-15T14:39:55;14.83;;;12.53;;
14358;SDS011;7263;49.418;11.064;2023-02-15T14:42:47;15.63;;;13.33;;
14358;SDS011;7263;49.418;11.064;2023-02-15T14:45:21;16.93;;;13.17;;
14358;SDS011;7263;49.418;11.064;2023-02-15T14:47:55;15.20;;;13.13;;
14358;SDS011;7263;49.418;11.064;2023-02-15T14:50:40;16.93;;;13.43;;
14358;SDS011;7263;49.418;11.064;2023-02-15T14:53:32;14.00;;;12.33;;
14358;SDS011;7263;49.418;11.064;2023-02-15T14:59:01;14.80;;;13.20;;